• Join FlightAware (Why Join?)
  • Login
  • US Flag 
09:58AM EDT


 

Airport Tracker/Info


-or-


 

Live Flight TrackerFlight Track Log ✈ ASQ5685 ✈ 29-Jul-2013 ✈ KATL - KIAD

Flight Track Log - Related Links

Times and Time Zones

All times are in EDT time to prevent confusion due to time zone crossing. See the ASQ5685 flight status page for this flight to view local times or setup timezone preferences in your user account.

Time Position Orientation Groundspeed Altitude Reporting Facility
EDT Latitude Longitude Course Direction KTS MPH feet Rate Location/Type
09:28AM 33.6286 -84.4853 245° Southwest 406 467 2,700  Level Atlanta Center
09:29AM 33.6167 -84.5167 245° Southwest 223 257 3,600 1,800 Climbing Atlanta TRACON
09:30AM 33.5667 -84.5833 228° Southwest 271 312 5,500 2,100 Climbing Atlanta TRACON
09:30AM 33.5000 -84.5833 180° South 284 327 7,600 2,100 Climbing Atlanta TRACON
09:31AM 33.4633 -84.5517 144° Southeast 317 365 8,600 1,560 Climbing Atlanta Center
09:32AM 33.4575 -84.4497 94° East 301 346 10,100 1,380 Climbing Atlanta Center
09:33AM 33.4558 -84.3350 91° East 326 375 11,400 1,260 Climbing Atlanta Center
09:34AM 33.5061 -84.2481 55° Northeast 323 372 12,700 1,080 Climbing Atlanta Center
09:35AM 33.5814 -84.1958 30° Northeast 301 346 13,600 960 Climbing Atlanta Center
09:36AM 33.6711 -84.1336 30° Northeast 346 398 14,700 1,020 Climbing Atlanta Center
09:37AM 33.7547 -84.0539 38° Northeast 377 434 15,700 1,200 Climbing Atlanta Center
09:38AM 33.8131 -83.9414 58° Northeast 376 433 17,100 1,080 Climbing Atlanta Center
09:39AM 33.8714 -83.8286 58° Northeast 386 444 17,900 600 Climbing Atlanta Center
09:40AM 33.9317 -83.7108 58° Northeast 406 467 18,400 600 Climbing Atlanta Center
09:41AM 34.0000 -83.6003 53° Northeast 412 474 19,100 780 Climbing Atlanta Center
09:42AM 34.0728 -83.4869 52° Northeast 417 480 20,000 780 Climbing Atlanta Center
09:43AM 34.1411 -83.3811 52° Northeast 417 480 20,700 600 Climbing Atlanta Center
09:44AM 34.2133 -83.2600 54° Northeast 417 480 21,300 540 Climbing Atlanta Center
09:45AM 34.2836 -83.1514 52° Northeast 412 474 21,800 540 Climbing Atlanta Center
09:46AM 34.3494 -83.0400 54° Northeast 419 482 22,400 540 Climbing Atlanta Center
09:47AM 34.4194 -82.9283 53° Northeast 414 476 22,900 480 Climbing Atlanta Center
09:48AM 34.4872 -82.8167 54° Northeast 414 476 23,400 480 Climbing Atlanta Center
09:49AM 34.5572 -82.7044 53° Northeast 414 476 23,900 480 Climbing Atlanta Center
09:50AM 34.6269 -82.5922 53° Northeast 412 474 24,400 420 Climbing Atlanta Center
09:51AM 34.6925 -82.4928 51° Northeast 412 474 24,800 420 Climbing Atlanta Center
09:52AM 34.7597 -82.3778 55° Northeast 412 474 25,300 540 Climbing Atlanta Center
09:53AM 34.8292 -82.2675 52° Northeast 419 482 25,900 540 Climbing Atlanta Center
09:54AM 34.9006 -82.1494 54° Northeast 419 482 26,400 2,520 Climbing Atlanta Center
09:55AM 34.9797 -82.0208 53° Northeast 414 476 31,000 480 Climbing Atlanta Center
09:56AM 35.0489 -81.9050 54° Northeast 422 486 27,400 -1,560 Descending Atlanta Center
09:57AM 35.1072 -81.7867 59° Northeast 431 496 27,900 1,800 Climbing Atlanta Center
09:58AM 35.1778 -81.6553 57° Northeast 431 496 31,000 480 Climbing Atlanta Center
09:59AM 35.2439 -81.5286 57° Northeast 426 490 28,900 -780 Descending Atlanta Center
10:00AM 35.3103 -81.4072 56° Northeast 426 490 29,500 540 Climbing Atlanta Center
10:01AM 35.3722 -81.2828 59° Northeast 426 490 30,000 480 Climbing Atlanta Center
10:02AM 35.4361 -81.1583 58° Northeast 426 490 30,500 300 Climbing Atlanta Center
10:03AM 35.5019 -81.0311 58° Northeast 432 497 30,700 -180 Climbing Atlanta Center
10:04AM 35.5697 -80.9036 57° Northeast 443 510 30,200 -360 Descending Atlanta Center
10:05AM 35.6392 -80.7681 58° Northeast 456 525 30,000 -120 Descending Atlanta Center
10:06AM 35.7086 -80.6347 57° Northeast 462 532 30,000  Level Atlanta Center
10:07AM 35.7778 -80.5014 57° Northeast 462 532 30,000 -120 Level Atlanta Center
10:08AM 35.8467 -80.3625 59° Northeast 470 541 29,800 -360 Descending Atlanta Center
10:09AM 35.9175 -80.2233 58° Northeast 475 547 29,300 -420 Descending Atlanta Center
10:10AM 35.9883 -80.0817 58° Northeast 480 552 29,000 -120 Descending Atlanta Center
10:12AM 36.1178 -79.8500 55° Northeast 486 559 29,000  Level Washington Center
10:13AM 36.1892 -79.7228 55° Northeast 492 566 29,000 -180 Level Washington Center
10:14AM 36.2756 -79.5725 54° Northeast 492 566 28,700 -420 Descending Washington Center
10:15AM 36.3553 -79.4347 54° Northeast 492 566 28,200 -540 Descending Washington Center
10:16AM 36.4261 -79.3014 57° Northeast 497 572 27,700 -540 Descending Washington Center
10:17AM 36.5078 -79.1581 55° Northeast 502 578 27,200 -540 Descending Washington Center
10:18AM 36.5956 -79.0069 54° Northeast 497 572 26,700 -540 Descending Washington Center
10:19AM 36.6706 -78.8625 57° Northeast 489 563 26,200 -900 Descending Washington Center
10:20AM 36.7472 -78.7233 55° Northeast 489 563 25,000 -600 Descending Washington Center
10:21AM 36.8239 -78.5811 56° Northeast 489 563 25,000  Level Washington Center
10:22AM 36.9003 -78.4436 55° Northeast 489 563 25,000 -480 Level Washington Center
10:23AM 36.9986 -78.3511 37° Northeast 475 547 24,100 -900 Descending Washington Center
10:24AM 37.1172 -78.2642 30° Northeast 480 552 23,200 -960 Descending Washington Center
10:25AM 37.2339 -78.1744 31° Northeast 485 558 22,200 -600 Descending Washington Center
10:26AM 37.3592 -78.0792 31° Northeast 482 555 22,000 -120 Descending Washington Center
10:27AM 37.4714 -77.9939 31° Northeast 477 549 22,000 -540 Level Washington Center
10:28AM 37.5858 -77.9058 31° Northeast 477 549 21,000 -1,680 Descending Washington Center
10:29AM 37.6958 -77.8225 31° Northeast 477 549 18,700 -2,220 Descending Washington Center
10:30AM 37.7972 -77.7442 31° Northeast 455 524 16,600 -2,280 Descending Washington Center
10:31AM 37.8947 -77.6681 32° Northeast 433 498 14,300 -2,340 Descending Washington Center
10:32AM 37.9917 -77.5942 31° Northeast 409 471 12,000 -2,100 Descending Washington Center
10:33AM 38.0764 -77.5306 31° Northeast 396 456 10,100 -1,020 Descending Washington Center
10:34AM 38.1544 -77.4692 32° Northeast 363 418 10,000 -60 Descending Washington Center
10:35AM 38.2325 -77.4156 28° Northeast 335 386 10,000 -600 Level Washington Center
10:36AM 38.3081 -77.3725 24° Northeast 310 357 8,900 -1,140 Descending Washington Center
10:37AM 38.3897 -77.3558 North 294 338 7,800 -960 Descending Washington Center
10:38AM 38.4600 -77.3919 338° Northwest 265 305 7,000 -1,140 Descending Washington Center
10:39AM 38.5281 -77.4389 332° Northwest 265 305 5,600 -1,020 Descending Washington Center
10:40AM 38.5964 -77.4697 341° North 265 305 5,000 -300 Descending Washington Center
10:41AM 38.7000 -77.4667 North 270 311 5,000 -660 Level Potomac TRACON
10:42AM 38.7667 -77.4667 360° North 254 292 3,700 -1,260 Descending Potomac TRACON
10:43AM 38.8333 -77.4667 360° North 215 247 2,500 -1,140 Descending Potomac TRACON
10:44AM 38.8833 -77.4667 360° North 171 197 1,500 -900 Descending Potomac TRACON
10:45AM 38.9167 -77.4667 360° North 142 163 800 -780 Descending Potomac TRACON
10:47AM 38.9333 -77.4500 North  Level FlightAware Approximate